Могилев

Карта отелей и гостиниц, располагающихся рядом с аэропортом Могилев :

Могилев Могилёвская область 53° 57' 19.44" N, 30° 5' 39.4188" E
Код аэродрома ИКАО: 
UMOO
Код аэродрома RU: 
УМОО
Координаты: 
N53.95540° E030.09428°
Превышение над уровнем моря : 
194
Основная полоса: 
13/31
Курс магнитный: 
128,8/308,8
Длина основной ВПП: 
2565
Ширина основной ВПП: 
42
Покрытие основной ВПП: 
Твёрдое
Освещение ВПП: 
По запросу
Тип: 
Аэродром
Класс аэродрома: 
Международный
Принадлежность: 
ГА
Статус: 
Действующий
Страна: 
Беларусь
Регион: 
Могилёвская область
Дополнительная информация: 
Белаэронавигация. Военный индекс: XMOO / ЬМОО.
Погода: 

Авиационная погода в Могилёве

Регион: 
Погода METAR: 
UMOO 201200Z 30002MPS 9999 BKN036 14/04 Q1023 NOSIG
Время наблюдения: 
2020-09-20T12:00:00Z
Температура C: 
14.0
Точка росы: 
4.0
Направление ветра: 
300
Скорость ветра (узлы): 
4
Метеорологическая видимость: 
6.21
Условия полета: 
VFR
Аэропорт подробнее: 

Найти трансфер

С помощью этой формы Вы можете найти трансфер из аэропорта Могилев в город, аэропорт или вокзал:

Карта места

Javascript is required to view this map.

Погода в аэропортах:

Авиационная погода в Куопио

Регион: 
Погода METAR: 
EFKU 201420Z AUTO 23013KT 9999 -RA NSC 11/06 Q1007
Время наблюдения: 
2020-09-20T14:20:00Z
Температура C: 
11.0
Точка росы: 
6.0
Направление ветра: 
230
Скорость ветра (узлы): 
13
Метеорологическая видимость: 
6.21
Явления погоды: 
-RA
Условия полета: 
VFR

Авиационная погода в Перми

Регион: 
Погода METAR: 
USPP 201430Z 32005MPS 9999 -RA OVC014 04/03 Q0994 R03/290350 NOSIG RMK QFE735
Время наблюдения: 
2020-09-20T14:30:00Z
Температура C: 
4.0
Точка росы: 
3.0
Направление ветра: 
320
Скорость ветра (узлы): 
10
Метеорологическая видимость: 
6.21
Явления погоды: 
-RA
Условия полета: 
MVFR
Аэропорт подробнее: 

Авиационная погода в Берлевоге

Регион: 
Погода METAR: 
ENBV 181950Z 32014KT 9999 VCSH SCT016 BKN028 07/05 Q0993
Время наблюдения: 
2020-09-18T19:50:00Z
Температура C: 
7.0
Точка росы: 
5.0
Направление ветра: 
320
Скорость ветра (узлы): 
14
Метеорологическая видимость: 
6.21
Явления погоды: 
VCSH
Условия полета: 
MVFR

Авиационная погода в Вадсё

Регион: 
Погода METAR: 
ENVD 201420Z 22010KT 9999 -RA BKN010 05/03 Q0994
Время наблюдения: 
2020-09-20T14:20:00Z
Температура C: 
5.0
Точка росы: 
3.0
Направление ветра: 
220
Скорость ветра (узлы): 
10
Метеорологическая видимость: 
6.21
Явления погоды: 
-RA
Условия полета: 
MVFR